Weather at Del Bajío International Airport

Public forecast

Using degrees Celsius for public forecast. Weather courtesy of forecast.io.

Current aviation weather report (METAR) for Del Bajío International Airport

Retrieved 2021/10/25 14:41 UTC (2 hours ago):

MMLO 251441Z 14006KT 9SM BKN030 BKN120 OVC250 16/14 A3036 RMK SLP160 52019 917 8/537 PCPN 1ST AND 2ND QUAD

Aviation forecast (TAF) for Del Bajío International Airport

Forecast is more than 6 hours old.

Retrieved 2021/10/25 06:24 UTC (10 hours ago):

TAF MMLO 250517Z 2506/2606 14005KT 6SM HZ SCT030 BKN080 FM251800 14010G20KT P6SM VC -RA BKN030 BKN100 BKN200 TEMPO 2522/2602 4SM TSRA OVC020CB